<?xml version="1.0" encoding="UTF-8" standalone="no" ?>
<gpx xmlns="http://www.topografix.com/GPX/1/1" xmlns:xsi="http://www.w3.org/2001/XMLSchema-instance" xsi:schemaLocation="http://www.topografix.com/GPX/1/1 http://www.topografix.com/GPX/1/1/gpx.xsd" version="1.1" creator="VisuGPX - https://www.visugpx.com">
  <metadata>
    <name>Marche Adeps 10 KMs Casteau. 26 jan 2014.</name>
    <desc><![CDATA[Marche Adeps 10 KMs Casteau. 26 jan 2014.]]></desc>
  </metadata>
  <trk>
    <name><![CDATA[Sequence 1]]></name>
    <trkseg>
      <trkpt lat="50.54252" lon="4.04105">
        <ele>106</ele>
        <time>2014-01-26T08:25:32Z</time>
      </trkpt>
      <trkpt lat="50.54246" lon="4.041">
        <ele>108</ele>
        <time>2014-01-26T08:25:38Z</time>
      </trkpt>
      <trkpt lat="50.54241" lon="4.041">
        <ele>109</ele>
        <time>2014-01-26T08:25:53Z</time>
      </trkpt>
      <trkpt lat="50.54239" lon="4.04102">
        <ele>109</ele>
        <time>2014-01-26T08:26:00Z</time>
      </trkpt>
      <trkpt lat="50.54235" lon="4.04114">
        <ele>109</ele>
        <time>2014-01-26T08:26:34Z</time>
      </trkpt>
      <trkpt lat="50.5423" lon="4.04119">
        <ele>109</ele>
        <time>2014-01-26T08:26:45Z</time>
      </trkpt>
      <trkpt lat="50.54233" lon="4.04126">
        <ele>108</ele>
        <time>2014-01-26T08:26:56Z</time>
      </trkpt>
      <trkpt lat="50.5424" lon="4.04141">
        <ele>108</ele>
        <time>2014-01-26T08:27:07Z</time>
      </trkpt>
      <trkpt lat="50.54247" lon="4.04155">
        <ele>107</ele>
        <time>2014-01-26T08:27:19Z</time>
      </trkpt>
      <trkpt lat="50.54254" lon="4.04171">
        <ele>105</ele>
        <time>2014-01-26T08:27:30Z</time>
      </trkpt>
      <trkpt lat="50.54267" lon="4.04164">
        <ele>105</ele>
        <time>2014-01-26T08:27:41Z</time>
      </trkpt>
      <trkpt lat="50.54275" lon="4.04153">
        <ele>105</ele>
        <time>2014-01-26T08:27:52Z</time>
      </trkpt>
      <trkpt lat="50.54285" lon="4.04145">
        <ele>105</ele>
        <time>2014-01-26T08:28:03Z</time>
      </trkpt>
      <trkpt lat="50.54298" lon="4.04131">
        <ele>105</ele>
        <time>2014-01-26T08:28:14Z</time>
      </trkpt>
      <trkpt lat="50.54315" lon="4.04117">
        <ele>105</ele>
        <time>2014-01-26T08:28:25Z</time>
      </trkpt>
      <trkpt lat="50.5433" lon="4.04107">
        <ele>105</ele>
        <time>2014-01-26T08:28:36Z</time>
      </trkpt>
      <trkpt lat="50.54341" lon="4.04092">
        <ele>105</ele>
        <time>2014-01-26T08:28:48Z</time>
      </trkpt>
      <trkpt lat="50.54347" lon="4.0407">
        <ele>106</ele>
        <time>2014-01-26T08:28:59Z</time>
      </trkpt>
      <trkpt lat="50.54348" lon="4.04049">
        <ele>107</ele>
        <time>2014-01-26T08:29:10Z</time>
      </trkpt>
      <trkpt lat="50.54357" lon="4.04041">
        <ele>108</ele>
        <time>2014-01-26T08:29:21Z</time>
      </trkpt>
      <trkpt lat="50.54365" lon="4.04035">
        <ele>108</ele>
        <time>2014-01-26T08:29:32Z</time>
      </trkpt>
      <trkpt lat="50.54378" lon="4.04032">
        <ele>108</ele>
        <time>2014-01-26T08:29:43Z</time>
      </trkpt>
      <trkpt lat="50.54389" lon="4.04029">
        <ele>108</ele>
        <time>2014-01-26T08:29:54Z</time>
      </trkpt>
      <trkpt lat="50.54399" lon="4.04033">
        <ele>108</ele>
        <time>2014-01-26T08:30:05Z</time>
      </trkpt>
      <trkpt lat="50.54403" lon="4.04025">
        <ele>109</ele>
        <time>2014-01-26T08:30:17Z</time>
      </trkpt>
      <trkpt lat="50.54409" lon="4.03991">
        <ele>111</ele>
        <time>2014-01-26T08:30:37Z</time>
      </trkpt>
      <trkpt lat="50.54413" lon="4.03982">
        <ele>111</ele>
        <time>2014-01-26T08:30:41Z</time>
      </trkpt>
      <trkpt lat="50.5442" lon="4.03959">
        <ele>111</ele>
        <time>2014-01-26T08:30:51Z</time>
      </trkpt>
      <trkpt lat="50.54429" lon="4.03942">
        <ele>111</ele>
        <time>2014-01-26T08:31:02Z</time>
      </trkpt>
      <trkpt lat="50.54439" lon="4.03933">
        <ele>111</ele>
        <time>2014-01-26T08:31:13Z</time>
      </trkpt>
      <trkpt lat="50.54451" lon="4.03922">
        <ele>111</ele>
        <time>2014-01-26T08:31:25Z</time>
      </trkpt>
      <trkpt lat="50.54464" lon="4.0391">
        <ele>112</ele>
        <time>2014-01-26T08:31:39Z</time>
      </trkpt>
      <trkpt lat="50.54471" lon="4.03904">
        <ele>111</ele>
        <time>2014-01-26T08:31:46Z</time>
      </trkpt>
      <trkpt lat="50.54486" lon="4.03888">
        <ele>112</ele>
        <time>2014-01-26T08:31:57Z</time>
      </trkpt>
      <trkpt lat="50.54499" lon="4.03874">
        <ele>112</ele>
        <time>2014-01-26T08:32:08Z</time>
      </trkpt>
      <trkpt lat="50.54509" lon="4.0386">
        <ele>111</ele>
        <time>2014-01-26T08:32:19Z</time>
      </trkpt>
      <trkpt lat="50.5452" lon="4.03842">
        <ele>111</ele>
        <time>2014-01-26T08:32:30Z</time>
      </trkpt>
      <trkpt lat="50.54533" lon="4.03826">
        <ele>110</ele>
        <time>2014-01-26T08:32:41Z</time>
      </trkpt>
      <trkpt lat="50.54544" lon="4.0381">
        <ele>110</ele>
        <time>2014-01-26T08:32:52Z</time>
      </trkpt>
      <trkpt lat="50.54549" lon="4.03795">
        <ele>109</ele>
        <time>2014-01-26T08:33:03Z</time>
      </trkpt>
      <trkpt lat="50.54551" lon="4.03779">
        <ele>109</ele>
        <time>2014-01-26T08:33:14Z</time>
      </trkpt>
      <trkpt lat="50.5457" lon="4.03765">
        <ele>108</ele>
        <time>2014-01-26T08:33:27Z</time>
      </trkpt>
      <trkpt lat="50.54578" lon="4.03756">
        <ele>108</ele>
        <time>2014-01-26T08:33:37Z</time>
      </trkpt>
      <trkpt lat="50.54596" lon="4.03738">
        <ele>107</ele>
        <time>2014-01-26T08:33:53Z</time>
      </trkpt>
      <trkpt lat="50.54606" lon="4.0373">
        <ele>106</ele>
        <time>2014-01-26T08:34:01Z</time>
      </trkpt>
      <trkpt lat="50.54618" lon="4.03721">
        <ele>106</ele>
        <time>2014-01-26T08:34:10Z</time>
      </trkpt>
      <trkpt lat="50.54627" lon="4.03708">
        <ele>106</ele>
        <time>2014-01-26T08:34:21Z</time>
      </trkpt>
      <trkpt lat="50.54642" lon="4.03721">
        <ele>106</ele>
        <time>2014-01-26T08:34:39Z</time>
      </trkpt>
      <trkpt lat="50.54644" lon="4.03738">
        <ele>106</ele>
        <time>2014-01-26T08:34:47Z</time>
      </trkpt>
      <trkpt lat="50.54644" lon="4.03753">
        <ele>107</ele>
        <time>2014-01-26T08:34:54Z</time>
      </trkpt>
      <trkpt lat="50.54643" lon="4.03777">
        <ele>107</ele>
        <time>2014-01-26T08:35:05Z</time>
      </trkpt>
      <trkpt lat="50.5465" lon="4.03799">
        <ele>107</ele>
        <time>2014-01-26T08:35:16Z</time>
      </trkpt>
      <trkpt lat="50.5466" lon="4.03834">
        <ele>107</ele>
        <time>2014-01-26T08:35:29Z</time>
      </trkpt>
      <trkpt lat="50.54665" lon="4.03856">
        <ele>107</ele>
        <time>2014-01-26T08:35:38Z</time>
      </trkpt>
      <trkpt lat="50.54684" lon="4.03879">
        <ele>107</ele>
        <time>2014-01-26T08:35:58Z</time>
      </trkpt>
      <trkpt lat="50.54688" lon="4.03881">
        <ele>107</ele>
        <time>2014-01-26T08:36:02Z</time>
      </trkpt>
      <trkpt lat="50.54695" lon="4.03895">
        <ele>107</ele>
        <time>2014-01-26T08:36:11Z</time>
      </trkpt>
      <trkpt lat="50.54706" lon="4.03909">
        <ele>107</ele>
        <time>2014-01-26T08:36:22Z</time>
      </trkpt>
      <trkpt lat="50.54711" lon="4.03932">
        <ele>107</ele>
        <time>2014-01-26T08:36:33Z</time>
      </trkpt>
      <trkpt lat="50.54712" lon="4.03953">
        <ele>108</ele>
        <time>2014-01-26T08:36:44Z</time>
      </trkpt>
      <trkpt lat="50.54714" lon="4.03977">
        <ele>108</ele>
        <time>2014-01-26T08:36:55Z</time>
      </trkpt>
      <trkpt lat="50.54709" lon="4.03999">
        <ele>108</ele>
        <time>2014-01-26T08:37:07Z</time>
      </trkpt>
      <trkpt lat="50.54699" lon="4.04009">
        <ele>108</ele>
        <time>2014-01-26T08:37:18Z</time>
      </trkpt>
      <trkpt lat="50.54684" lon="4.04025">
        <ele>108</ele>
        <time>2014-01-26T08:37:30Z</time>
      </trkpt>
      <trkpt lat="50.54685" lon="4.04051">
        <ele>108</ele>
        <time>2014-01-26T08:37:40Z</time>
      </trkpt>
      <trkpt lat="50.54688" lon="4.04073">
        <ele>107</ele>
        <time>2014-01-26T08:37:51Z</time>
      </trkpt>
      <trkpt lat="50.54692" lon="4.04097">
        <ele>106</ele>
        <time>2014-01-26T08:38:02Z</time>
      </trkpt>
      <trkpt lat="50.54694" lon="4.04128">
        <ele>105</ele>
        <time>2014-01-26T08:38:15Z</time>
      </trkpt>
      <trkpt lat="50.54697" lon="4.04147">
        <ele>105</ele>
        <time>2014-01-26T08:38:24Z</time>
      </trkpt>
      <trkpt lat="50.54701" lon="4.04171">
        <ele>105</ele>
        <time>2014-01-26T08:38:35Z</time>
      </trkpt>
      <trkpt lat="50.54703" lon="4.04197">
        <ele>105</ele>
        <time>2014-01-26T08:38:47Z</time>
      </trkpt>
      <trkpt lat="50.54706" lon="4.04223">
        <ele>105</ele>
        <time>2014-01-26T08:38:59Z</time>
      </trkpt>
      <trkpt lat="50.54708" lon="4.04242">
        <ele>105</ele>
        <time>2014-01-26T08:39:08Z</time>
      </trkpt>
      <trkpt lat="50.5471" lon="4.04266">
        <ele>105</ele>
        <time>2014-01-26T08:39:19Z</time>
      </trkpt>
      <trkpt lat="50.54711" lon="4.04286">
        <ele>106</ele>
        <time>2014-01-26T08:39:30Z</time>
      </trkpt>
      <trkpt lat="50.54716" lon="4.04312">
        <ele>106</ele>
        <time>2014-01-26T08:39:41Z</time>
      </trkpt>
      <trkpt lat="50.54721" lon="4.04342">
        <ele>106</ele>
        <time>2014-01-26T08:39:54Z</time>
      </trkpt>
      <trkpt lat="50.54722" lon="4.04363">
        <ele>106</ele>
        <time>2014-01-26T08:40:03Z</time>
      </trkpt>
      <trkpt lat="50.54726" lon="4.04382">
        <ele>106</ele>
        <time>2014-01-26T08:40:14Z</time>
      </trkpt>
      <trkpt lat="50.54731" lon="4.04401">
        <ele>107</ele>
        <time>2014-01-26T08:40:25Z</time>
      </trkpt>
      <trkpt lat="50.54734" lon="4.0443">
        <ele>107</ele>
        <time>2014-01-26T08:40:37Z</time>
      </trkpt>
      <trkpt lat="50.54734" lon="4.04445">
        <ele>107</ele>
        <time>2014-01-26T08:40:47Z</time>
      </trkpt>
      <trkpt lat="50.54738" lon="4.04466">
        <ele>107</ele>
        <time>2014-01-26T08:40:58Z</time>
      </trkpt>
      <trkpt lat="50.54742" lon="4.0449">
        <ele>107</ele>
        <time>2014-01-26T08:41:10Z</time>
      </trkpt>
      <trkpt lat="50.54747" lon="4.04516">
        <ele>107</ele>
        <time>2014-01-26T08:41:21Z</time>
      </trkpt>
      <trkpt lat="50.54743" lon="4.04533">
        <ele>106</ele>
        <time>2014-01-26T08:41:31Z</time>
      </trkpt>
      <trkpt lat="50.5473" lon="4.0454">
        <ele>106</ele>
        <time>2014-01-26T08:41:42Z</time>
      </trkpt>
      <trkpt lat="50.54716" lon="4.04548">
        <ele>106</ele>
        <time>2014-01-26T08:41:53Z</time>
      </trkpt>
      <trkpt lat="50.54703" lon="4.04556">
        <ele>105</ele>
        <time>2014-01-26T08:42:04Z</time>
      </trkpt>
      <trkpt lat="50.54686" lon="4.04564">
        <ele>105</ele>
        <time>2014-01-26T08:42:16Z</time>
      </trkpt>
      <trkpt lat="50.54673" lon="4.04571">
        <ele>104</ele>
        <time>2014-01-26T08:42:26Z</time>
      </trkpt>
      <trkpt lat="50.54656" lon="4.04575">
        <ele>103</ele>
        <time>2014-01-26T08:42:37Z</time>
      </trkpt>
      <trkpt lat="50.54639" lon="4.04581">
        <ele>103</ele>
        <time>2014-01-26T08:42:48Z</time>
      </trkpt>
      <trkpt lat="50.54624" lon="4.04591">
        <ele>103</ele>
        <time>2014-01-26T08:42:59Z</time>
      </trkpt>
      <trkpt lat="50.54611" lon="4.04596">
        <ele>103</ele>
        <time>2014-01-26T08:43:10Z</time>
      </trkpt>
      <trkpt lat="50.54596" lon="4.04603">
        <ele>103</ele>
        <time>2014-01-26T08:43:21Z</time>
      </trkpt>
      <trkpt lat="50.54585" lon="4.04613">
        <ele>102</ele>
        <time>2014-01-26T08:43:32Z</time>
      </trkpt>
      <trkpt lat="50.54572" lon="4.04621">
        <ele>103</ele>
        <time>2014-01-26T08:43:43Z</time>
      </trkpt>
      <trkpt lat="50.5456" lon="4.04631">
        <ele>103</ele>
        <time>2014-01-26T08:43:54Z</time>
      </trkpt>
      <trkpt lat="50.54546" lon="4.04639">
        <ele>103</ele>
        <time>2014-01-26T08:44:05Z</time>
      </trkpt>
      <trkpt lat="50.54534" lon="4.04654">
        <ele>103</ele>
        <time>2014-01-26T08:44:16Z</time>
      </trkpt>
      <trkpt lat="50.54522" lon="4.04665">
        <ele>103</ele>
        <time>2014-01-26T08:44:27Z</time>
      </trkpt>
      <trkpt lat="50.54511" lon="4.04678">
        <ele>103</ele>
        <time>2014-01-26T08:44:38Z</time>
      </trkpt>
      <trkpt lat="50.545" lon="4.04694">
        <ele>103</ele>
        <time>2014-01-26T08:44:49Z</time>
      </trkpt>
      <trkpt lat="50.54489" lon="4.04713">
        <ele>104</ele>
        <time>2014-01-26T08:45:00Z</time>
      </trkpt>
      <trkpt lat="50.54479" lon="4.04731">
        <ele>104</ele>
        <time>2014-01-26T08:45:11Z</time>
      </trkpt>
      <trkpt lat="50.54468" lon="4.04746">
        <ele>104</ele>
        <time>2014-01-26T08:45:22Z</time>
      </trkpt>
      <trkpt lat="50.54458" lon="4.04761">
        <ele>104</ele>
        <time>2014-01-26T08:45:33Z</time>
      </trkpt>
      <trkpt lat="50.54446" lon="4.04776">
        <ele>104</ele>
        <time>2014-01-26T08:45:44Z</time>
      </trkpt>
      <trkpt lat="50.54435" lon="4.04793">
        <ele>104</ele>
        <time>2014-01-26T08:45:55Z</time>
      </trkpt>
      <trkpt lat="50.54422" lon="4.04805">
        <ele>104</ele>
        <time>2014-01-26T08:46:06Z</time>
      </trkpt>
      <trkpt lat="50.5441" lon="4.04819">
        <ele>104</ele>
        <time>2014-01-26T08:46:17Z</time>
      </trkpt>
      <trkpt lat="50.54402" lon="4.04838">
        <ele>103</ele>
        <time>2014-01-26T08:46:28Z</time>
      </trkpt>
      <trkpt lat="50.5439" lon="4.0486">
        <ele>103</ele>
        <time>2014-01-26T08:46:41Z</time>
      </trkpt>
      <trkpt lat="50.54384" lon="4.04875">
        <ele>103</ele>
        <time>2014-01-26T08:46:50Z</time>
      </trkpt>
      <trkpt lat="50.54367" lon="4.04896">
        <ele>102</ele>
        <time>2014-01-26T08:47:06Z</time>
      </trkpt>
      <trkpt lat="50.54362" lon="4.04905">
        <ele>102</ele>
        <time>2014-01-26T08:47:12Z</time>
      </trkpt>
      <trkpt lat="50.5435" lon="4.0493">
        <ele>102</ele>
        <time>2014-01-26T08:47:28Z</time>
      </trkpt>
      <trkpt lat="50.54347" lon="4.04942">
        <ele>102</ele>
        <time>2014-01-26T08:47:34Z</time>
      </trkpt>
      <trkpt lat="50.54339" lon="4.04961">
        <ele>102</ele>
        <time>2014-01-26T08:47:46Z</time>
      </trkpt>
      <trkpt lat="50.54342" lon="4.04975">
        <ele>102</ele>
        <time>2014-01-26T08:47:56Z</time>
      </trkpt>
      <trkpt lat="50.54347" lon="4.04987">
        <ele>102</ele>
        <time>2014-01-26T08:48:07Z</time>
      </trkpt>
      <trkpt lat="50.54349" lon="4.05013">
        <ele>102</ele>
        <time>2014-01-26T08:48:18Z</time>
      </trkpt>
      <trkpt lat="50.5435" lon="4.05045">
        <ele>103</ele>
        <time>2014-01-26T08:48:29Z</time>
      </trkpt>
      <trkpt lat="50.54353" lon="4.05071">
        <ele>103</ele>
        <time>2014-01-26T08:48:40Z</time>
      </trkpt>
      <trkpt lat="50.54357" lon="4.05092">
        <ele>103</ele>
        <time>2014-01-26T08:48:51Z</time>
      </trkpt>
      <trkpt lat="50.5436" lon="4.05112">
        <ele>103</ele>
        <time>2014-01-26T08:49:02Z</time>
      </trkpt>
      <trkpt lat="50.54363" lon="4.05137">
        <ele>103</ele>
        <time>2014-01-26T08:49:13Z</time>
      </trkpt>
      <trkpt lat="50.54365" lon="4.05159">
        <ele>103</ele>
        <time>2014-01-26T08:49:24Z</time>
      </trkpt>
      <trkpt lat="50.54368" lon="4.05181">
        <ele>104</ele>
        <time>2014-01-26T08:49:35Z</time>
      </trkpt>
      <trkpt lat="50.54372" lon="4.05207">
        <ele>104</ele>
        <time>2014-01-26T08:49:48Z</time>
      </trkpt>
      <trkpt lat="50.54377" lon="4.05228">
        <ele>103</ele>
        <time>2014-01-26T08:50:00Z</time>
      </trkpt>
      <trkpt lat="50.5438" lon="4.05246">
        <ele>103</ele>
        <time>2014-01-26T08:50:09Z</time>
      </trkpt>
      <trkpt lat="50.54384" lon="4.05269">
        <ele>103</ele>
        <time>2014-01-26T08:50:19Z</time>
      </trkpt>
      <trkpt lat="50.54388" lon="4.05293">
        <ele>103</ele>
        <time>2014-01-26T08:50:31Z</time>
      </trkpt>
      <trkpt lat="50.54392" lon="4.05316">
        <ele>103</ele>
        <time>2014-01-26T08:50:41Z</time>
      </trkpt>
      <trkpt lat="50.54397" lon="4.05338">
        <ele>102</ele>
        <time>2014-01-26T08:50:52Z</time>
      </trkpt>
      <trkpt lat="50.54402" lon="4.05359">
        <ele>102</ele>
        <time>2014-01-26T08:51:03Z</time>
      </trkpt>
      <trkpt lat="50.54409" lon="4.05378">
        <ele>102</ele>
        <time>2014-01-26T08:51:14Z</time>
      </trkpt>
      <trkpt lat="50.54414" lon="4.05401">
        <ele>102</ele>
        <time>2014-01-26T08:51:25Z</time>
      </trkpt>
      <trkpt lat="50.5442" lon="4.05424">
        <ele>102</ele>
        <time>2014-01-26T08:51:36Z</time>
      </trkpt>
      <trkpt lat="50.54425" lon="4.05446">
        <ele>101</ele>
        <time>2014-01-26T08:51:47Z</time>
      </trkpt>
      <trkpt lat="50.54432" lon="4.05473">
        <ele>101</ele>
        <time>2014-01-26T08:52:01Z</time>
      </trkpt>
      <trkpt lat="50.54436" lon="4.05489">
        <ele>101</ele>
        <time>2014-01-26T08:52:09Z</time>
      </trkpt>
      <trkpt lat="50.54441" lon="4.05509">
        <ele>101</ele>
        <time>2014-01-26T08:52:20Z</time>
      </trkpt>
      <trkpt lat="50.54448" lon="4.05529">
        <ele>101</ele>
        <time>2014-01-26T08:52:31Z</time>
      </trkpt>
      <trkpt lat="50.54452" lon="4.05551">
        <ele>101</ele>
        <time>2014-01-26T08:52:42Z</time>
      </trkpt>
      <trkpt lat="50.54458" lon="4.05572">
        <ele>101</ele>
        <time>2014-01-26T08:52:53Z</time>
      </trkpt>
      <trkpt lat="50.54463" lon="4.05593">
        <ele>100</ele>
        <time>2014-01-26T08:53:04Z</time>
      </trkpt>
      <trkpt lat="50.54468" lon="4.05613">
        <ele>100</ele>
        <time>2014-01-26T08:53:15Z</time>
      </trkpt>
      <trkpt lat="50.54473" lon="4.05632">
        <ele>100</ele>
        <time>2014-01-26T08:53:26Z</time>
      </trkpt>
      <trkpt lat="50.54476" lon="4.05652">
        <ele>100</ele>
        <time>2014-01-26T08:53:37Z</time>
      </trkpt>
      <trkpt lat="50.5448" lon="4.05673">
        <ele>100</ele>
        <time>2014-01-26T08:53:48Z</time>
      </trkpt>
      <trkpt lat="50.54483" lon="4.05696">
        <ele>100</ele>
        <time>2014-01-26T08:53:59Z</time>
      </trkpt>
      <trkpt lat="50.54487" lon="4.05717">
        <ele>100</ele>
        <time>2014-01-26T08:54:10Z</time>
      </trkpt>
      <trkpt lat="50.5449" lon="4.0574">
        <ele>100</ele>
        <time>2014-01-26T08:54:21Z</time>
      </trkpt>
      <trkpt lat="50.54495" lon="4.05758">
        <ele>100</ele>
        <time>2014-01-26T08:54:32Z</time>
      </trkpt>
      <trkpt lat="50.54499" lon="4.05782">
        <ele>100</ele>
        <time>2014-01-26T08:54:43Z</time>
      </trkpt>
      <trkpt lat="50.54501" lon="4.05804">
        <ele>100</ele>
        <time>2014-01-26T08:54:54Z</time>
      </trkpt>
      <trkpt lat="50.54506" lon="4.0582">
        <ele>100</ele>
        <time>2014-01-26T08:55:05Z</time>
      </trkpt>
      <trkpt lat="50.54512" lon="4.05841">
        <ele>100</ele>
        <time>2014-01-26T08:55:16Z</time>
      </trkpt>
      <trkpt lat="50.54515" lon="4.05864">
        <ele>100</ele>
        <time>2014-01-26T08:55:27Z</time>
      </trkpt>
      <trkpt lat="50.54519" lon="4.05886">
        <ele>100</ele>
        <time>2014-01-26T08:55:38Z</time>
      </trkpt>
      <trkpt lat="50.54524" lon="4.05905">
        <ele>100</ele>
        <time>2014-01-26T08:55:50Z</time>
      </trkpt>
      <trkpt lat="50.54526" lon="4.05927">
        <ele>100</ele>
        <time>2014-01-26T08:56:00Z</time>
      </trkpt>
      <trkpt lat="50.54524" lon="4.05956">
        <ele>100</ele>
        <time>2014-01-26T08:56:13Z</time>
      </trkpt>
      <trkpt lat="50.54526" lon="4.05975">
        <ele>100</ele>
        <time>2014-01-26T08:56:22Z</time>
      </trkpt>
      <trkpt lat="50.54528" lon="4.05998">
        <ele>100</ele>
        <time>2014-01-26T08:56:33Z</time>
      </trkpt>
      <trkpt lat="50.54529" lon="4.06022">
        <ele>100</ele>
        <time>2014-01-26T08:56:44Z</time>
      </trkpt>
      <trkpt lat="50.5453" lon="4.06044">
        <ele>100</ele>
        <time>2014-01-26T08:56:55Z</time>
      </trkpt>
      <trkpt lat="50.54532" lon="4.06068">
        <ele>100</ele>
        <time>2014-01-26T08:57:06Z</time>
      </trkpt>
      <trkpt lat="50.54534" lon="4.06091">
        <ele>100</ele>
        <time>2014-01-26T08:57:17Z</time>
      </trkpt>
      <trkpt lat="50.54535" lon="4.06114">
        <ele>100</ele>
        <time>2014-01-26T08:57:28Z</time>
      </trkpt>
      <trkpt lat="50.54534" lon="4.0615">
        <ele>100</ele>
        <time>2014-01-26T08:57:42Z</time>
      </trkpt>
      <trkpt lat="50.54536" lon="4.06163">
        <ele>100</ele>
        <time>2014-01-26T08:57:50Z</time>
      </trkpt>
      <trkpt lat="50.54538" lon="4.0618">
        <ele>100</ele>
        <time>2014-01-26T08:58:01Z</time>
      </trkpt>
      <trkpt lat="50.5454" lon="4.06206">
        <ele>100</ele>
        <time>2014-01-26T08:58:13Z</time>
      </trkpt>
      <trkpt lat="50.54541" lon="4.06228">
        <ele>100</ele>
        <time>2014-01-26T08:58:23Z</time>
      </trkpt>
      <trkpt lat="50.54541" lon="4.06253">
        <ele>100</ele>
        <time>2014-01-26T08:58:34Z</time>
      </trkpt>
      <trkpt lat="50.54542" lon="4.06279">
        <ele>100</ele>
        <time>2014-01-26T08:58:45Z</time>
      </trkpt>
      <trkpt lat="50.54542" lon="4.06307">
        <ele>99</ele>
        <time>2014-01-26T08:58:56Z</time>
      </trkpt>
      <trkpt lat="50.54545" lon="4.06329">
        <ele>99</ele>
        <time>2014-01-26T08:59:07Z</time>
      </trkpt>
      <trkpt lat="50.54547" lon="4.0635">
        <ele>99</ele>
        <time>2014-01-26T08:59:18Z</time>
      </trkpt>
      <trkpt lat="50.54553" lon="4.06366">
        <ele>99</ele>
        <time>2014-01-26T08:59:29Z</time>
      </trkpt>
      <trkpt lat="50.54562" lon="4.06371">
        <ele>99</ele>
        <time>2014-01-26T08:59:41Z</time>
      </trkpt>
      <trkpt lat="50.5457" lon="4.06371">
        <ele>99</ele>
        <time>2014-01-26T08:59:52Z</time>
      </trkpt>
      <trkpt lat="50.54578" lon="4.06371">
        <ele>99</ele>
        <time>2014-01-26T09:00:03Z</time>
      </trkpt>
      <trkpt lat="50.54591" lon="4.0637">
        <ele>99</ele>
        <time>2014-01-26T09:00:15Z</time>
      </trkpt>
      <trkpt lat="50.54611" lon="4.06367">
        <ele>99</ele>
        <time>2014-01-26T09:00:34Z</time>
      </trkpt>
      <trkpt lat="50.54616" lon="4.06363">
        <ele>99</ele>
        <time>2014-01-26T09:00:40Z</time>
      </trkpt>
      <trkpt lat="50.54623" lon="4.06361">
        <ele>99</ele>
        <time>2014-01-26T09:00:47Z</time>
      </trkpt>
      <trkpt lat="50.54635" lon="4.06361">
        <ele>98</ele>
        <time>2014-01-26T09:00:58Z</time>
      </trkpt>
      <trkpt lat="50.54658" lon="4.06366">
        <ele>98</ele>
        <time>2014-01-26T09:01:14Z</time>
      </trkpt>
      <trkpt lat="50.54666" lon="4.06371">
        <ele>98</ele>
        <time>2014-01-26T09:01:21Z</time>
      </trkpt>
      <trkpt lat="50.54683" lon="4.0638">
        <ele>98</ele>
        <time>2014-01-26T09:01:32Z</time>
      </trkpt>
      <trkpt lat="50.54703" lon="4.06386">
        <ele>98</ele>
        <time>2014-01-26T09:01:44Z</time>
      </trkpt>
      <trkpt lat="50.54741" lon="4.06409">
        <ele>97</ele>
        <time>2014-01-26T09:02:04Z</time>
      </trkpt>
      <trkpt lat="50.54753" lon="4.06413">
        <ele>97</ele>
        <time>2014-01-26T09:02:11Z</time>
      </trkpt>
      <trkpt lat="50.54759" lon="4.06415">
        <ele>97</ele>
        <time>2014-01-26T09:02:16Z</time>
      </trkpt>
      <trkpt lat="50.54772" lon="4.06421">
        <ele>97</ele>
        <time>2014-01-26T09:02:27Z</time>
      </trkpt>
      <trkpt lat="50.54786" lon="4.0643">
        <ele>97</ele>
        <time>2014-01-26T09:02:38Z</time>
      </trkpt>
      <trkpt lat="50.54799" lon="4.06438">
        <ele>97</ele>
        <time>2014-01-26T09:02:49Z</time>
      </trkpt>
      <trkpt lat="50.54811" lon="4.06444">
        <ele>97</ele>
        <time>2014-01-26T09:03:00Z</time>
      </trkpt>
      <trkpt lat="50.54823" lon="4.06449">
        <ele>97</ele>
        <time>2014-01-26T09:03:11Z</time>
      </trkpt>
      <trkpt lat="50.54838" lon="4.06453">
        <ele>97</ele>
        <time>2014-01-26T09:03:23Z</time>
      </trkpt>
      <trkpt lat="50.54849" lon="4.06458">
        <ele>97</ele>
        <time>2014-01-26T09:03:34Z</time>
      </trkpt>
      <trkpt lat="50.5486" lon="4.06462">
        <ele>97</ele>
        <time>2014-01-26T09:03:45Z</time>
      </trkpt>
      <trkpt lat="50.54874" lon="4.06468">
        <ele>97</ele>
        <time>2014-01-26T09:03:56Z</time>
      </trkpt>
      <trkpt lat="50.5489" lon="4.06472">
        <ele>97</ele>
        <time>2014-01-26T09:04:07Z</time>
      </trkpt>
      <trkpt lat="50.54904" lon="4.06474">
        <ele>97</ele>
        <time>2014-01-26T09:04:18Z</time>
      </trkpt>
      <trkpt lat="50.54918" lon="4.06481">
        <ele>97</ele>
        <time>2014-01-26T09:04:29Z</time>
      </trkpt>
      <trkpt lat="50.54935" lon="4.06485">
        <ele>97</ele>
        <time>2014-01-26T09:04:40Z</time>
      </trkpt>
      <trkpt lat="50.54948" lon="4.06486">
        <ele>97</ele>
        <time>2014-01-26T09:04:51Z</time>
      </trkpt>
      <trkpt lat="50.54957" lon="4.06487">
        <ele>96</ele>
        <time>2014-01-26T09:05:03Z</time>
      </trkpt>
      <trkpt lat="50.54972" lon="4.06485">
        <ele>96</ele>
        <time>2014-01-26T09:05:15Z</time>
      </trkpt>
      <trkpt lat="50.54981" lon="4.06486">
        <ele>96</ele>
        <time>2014-01-26T09:05:24Z</time>
      </trkpt>
      <trkpt lat="50.54995" lon="4.06491">
        <ele>96</ele>
        <time>2014-01-26T09:05:35Z</time>
      </trkpt>
      <trkpt lat="50.55013" lon="4.0649">
        <ele>95</ele>
        <time>2014-01-26T09:05:48Z</time>
      </trkpt>
      <trkpt lat="50.55029" lon="4.06488">
        <ele>94</ele>
        <time>2014-01-26T09:05:57Z</time>
      </trkpt>
      <trkpt lat="50.55056" lon="4.06496">
        <ele>94</ele>
        <time>2014-01-26T09:06:18Z</time>
      </trkpt>
      <trkpt lat="50.55057" lon="4.06497">
        <ele>94</ele>
        <time>2014-01-26T09:06:19Z</time>
      </trkpt>
      <trkpt lat="50.55078" lon="4.06503">
        <ele>93</ele>
        <time>2014-01-26T09:06:35Z</time>
      </trkpt>
      <trkpt lat="50.55098" lon="4.06512">
        <ele>93</ele>
        <time>2014-01-26T09:06:49Z</time>
      </trkpt>
      <trkpt lat="50.55102" lon="4.06515">
        <ele>93</ele>
        <time>2014-01-26T09:06:52Z</time>
      </trkpt>
      <trkpt lat="50.55114" lon="4.06527">
        <ele>93</ele>
        <time>2014-01-26T09:07:05Z</time>
      </trkpt>
      <trkpt lat="50.55125" lon="4.06536">
        <ele>93</ele>
        <time>2014-01-26T09:07:14Z</time>
      </trkpt>
      <trkpt lat="50.55134" lon="4.06536">
        <ele>93</ele>
        <time>2014-01-26T09:07:25Z</time>
      </trkpt>
      <trkpt lat="50.55147" lon="4.06529">
        <ele>93</ele>
        <time>2014-01-26T09:07:36Z</time>
      </trkpt>
      <trkpt lat="50.5517" lon="4.06516">
        <ele>92</ele>
        <time>2014-01-26T09:07:52Z</time>
      </trkpt>
      <trkpt lat="50.55178" lon="4.06511">
        <ele>92</ele>
        <time>2014-01-26T09:07:58Z</time>
      </trkpt>
      <trkpt lat="50.5519" lon="4.06504">
        <ele>92</ele>
        <time>2014-01-26T09:08:09Z</time>
      </trkpt>
      <trkpt lat="50.55209" lon="4.06494">
        <ele>92</ele>
        <time>2014-01-26T09:08:27Z</time>
      </trkpt>
      <trkpt lat="50.55215" lon="4.06493">
        <ele>92</ele>
        <time>2014-01-26T09:08:31Z</time>
      </trkpt>
      <trkpt lat="50.5523" lon="4.06488">
        <ele>92</ele>
        <time>2014-01-26T09:08:42Z</time>
      </trkpt>
      <trkpt lat="50.55245" lon="4.06483">
        <ele>92</ele>
        <time>2014-01-26T09:08:53Z</time>
      </trkpt>
      <trkpt lat="50.55262" lon="4.06477">
        <ele>92</ele>
        <time>2014-01-26T09:09:04Z</time>
      </trkpt>
      <trkpt lat="50.55275" lon="4.06473">
        <ele>92</ele>
        <time>2014-01-26T09:09:15Z</time>
      </trkpt>
      <trkpt lat="50.55286" lon="4.06469">
        <ele>92</ele>
        <time>2014-01-26T09:09:26Z</time>
      </trkpt>
      <trkpt lat="50.55299" lon="4.06466">
        <ele>92</ele>
        <time>2014-01-26T09:09:37Z</time>
      </trkpt>
      <trkpt lat="50.55307" lon="4.06465">
        <ele>92</ele>
        <time>2014-01-26T09:09:48Z</time>
      </trkpt>
      <trkpt lat="50.55313" lon="4.06464">
        <ele>92</ele>
        <time>2014-01-26T09:09:59Z</time>
      </trkpt>
      <trkpt lat="50.5532" lon="4.06464">
        <ele>92</ele>
        <time>2014-01-26T09:10:10Z</time>
      </trkpt>
      <trkpt lat="50.55331" lon="4.06461">
        <ele>92</ele>
        <time>2014-01-26T09:10:21Z</time>
      </trkpt>
      <trkpt lat="50.55342" lon="4.06454">
        <ele>92</ele>
        <time>2014-01-26T09:10:32Z</time>
      </trkpt>
      <trkpt lat="50.55355" lon="4.06449">
        <ele>92</ele>
        <time>2014-01-26T09:10:43Z</time>
      </trkpt>
      <trkpt lat="50.55363" lon="4.06446">
        <ele>92</ele>
        <time>2014-01-26T09:10:54Z</time>
      </trkpt>
      <trkpt lat="50.55372" lon="4.06444">
        <ele>92</ele>
        <time>2014-01-26T09:11:05Z</time>
      </trkpt>
      <trkpt lat="50.55386" lon="4.06438">
        <ele>93</ele>
        <time>2014-01-26T09:11:17Z</time>
      </trkpt>
      <trkpt lat="50.55396" lon="4.06432">
        <ele>93</ele>
        <time>2014-01-26T09:11:27Z</time>
      </trkpt>
      <trkpt lat="50.5541" lon="4.0643">
        <ele>93</ele>
        <time>2014-01-26T09:11:38Z</time>
      </trkpt>
      <trkpt lat="50.55424" lon="4.06427">
        <ele>93</ele>
        <time>2014-01-26T09:11:50Z</time>
      </trkpt>
      <trkpt lat="50.55434" lon="4.06422">
        <ele>93</ele>
        <time>2014-01-26T09:12:00Z</time>
      </trkpt>
      <trkpt lat="50.55446" lon="4.06419">
        <ele>93</ele>
        <time>2014-01-26T09:12:11Z</time>
      </trkpt>
      <trkpt lat="50.55457" lon="4.06416">
        <ele>93</ele>
        <time>2014-01-26T09:12:22Z</time>
      </trkpt>
      <trkpt lat="50.5547" lon="4.06414">
        <ele>93</ele>
        <time>2014-01-26T09:12:33Z</time>
      </trkpt>
      <trkpt lat="50.55484" lon="4.06413">
        <ele>94</ele>
        <time>2014-01-26T09:12:44Z</time>
      </trkpt>
      <trkpt lat="50.55498" lon="4.06413">
        <ele>94</ele>
        <time>2014-01-26T09:12:55Z</time>
      </trkpt>
      <trkpt lat="50.55509" lon="4.06412">
        <ele>94</ele>
        <time>2014-01-26T09:13:06Z</time>
      </trkpt>
      <trkpt lat="50.55523" lon="4.0641">
        <ele>94</ele>
        <time>2014-01-26T09:13:17Z</time>
      </trkpt>
      <trkpt lat="50.55537" lon="4.06409">
        <ele>94</ele>
        <time>2014-01-26T09:13:28Z</time>
      </trkpt>
      <trkpt lat="50.5555" lon="4.06407">
        <ele>93</ele>
        <time>2014-01-26T09:13:39Z</time>
      </trkpt>
      <trkpt lat="50.55565" lon="4.06405">
        <ele>93</ele>
        <time>2014-01-26T09:13:50Z</time>
      </trkpt>
      <trkpt lat="50.55578" lon="4.06403">
        <ele>93</ele>
        <time>2014-01-26T09:14:01Z</time>
      </trkpt>
      <trkpt lat="50.55593" lon="4.06401">
        <ele>93</ele>
        <time>2014-01-26T09:14:12Z</time>
      </trkpt>
      <trkpt lat="50.55607" lon="4.06396">
        <ele>93</ele>
        <time>2014-01-26T09:14:23Z</time>
      </trkpt>
      <trkpt lat="50.55619" lon="4.06392">
        <ele>93</ele>
        <time>2014-01-26T09:14:34Z</time>
      </trkpt>
      <trkpt lat="50.5563" lon="4.06387">
        <ele>93</ele>
        <time>2014-01-26T09:14:45Z</time>
      </trkpt>
      <trkpt lat="50.55645" lon="4.06376">
        <ele>93</ele>
        <time>2014-01-26T09:14:56Z</time>
      </trkpt>
      <trkpt lat="50.55658" lon="4.06373">
        <ele>93</ele>
        <time>2014-01-26T09:15:07Z</time>
      </trkpt>
      <trkpt lat="50.5567" lon="4.06365">
        <ele>93</ele>
        <time>2014-01-26T09:15:18Z</time>
      </trkpt>
      <trkpt lat="50.55687" lon="4.06365">
        <ele>93</ele>
        <time>2014-01-26T09:15:29Z</time>
      </trkpt>
      <trkpt lat="50.55699" lon="4.0636">
        <ele>93</ele>
        <time>2014-01-26T09:15:40Z</time>
      </trkpt>
      <trkpt lat="50.55711" lon="4.06355">
        <ele>94</ele>
        <time>2014-01-26T09:15:51Z</time>
      </trkpt>
      <trkpt lat="50.55726" lon="4.06354">
        <ele>94</ele>
        <time>2014-01-26T09:16:02Z</time>
      </trkpt>
      <trkpt lat="50.55741" lon="4.06351">
        <ele>94</ele>
        <time>2014-01-26T09:16:13Z</time>
      </trkpt>
      <trkpt lat="50.55753" lon="4.06348">
        <ele>94</ele>
        <time>2014-01-26T09:16:24Z</time>
      </trkpt>
      <trkpt lat="50.55764" lon="4.06348">
        <ele>94</ele>
        <time>2014-01-26T09:16:35Z</time>
      </trkpt>
      <trkpt lat="50.55776" lon="4.06352">
        <ele>94</ele>
        <time>2014-01-26T09:16:46Z</time>
      </trkpt>
      <trkpt lat="50.55792" lon="4.06354">
        <ele>95</ele>
        <time>2014-01-26T09:16:58Z</time>
      </trkpt>
      <trkpt lat="50.55803" lon="4.06355">
        <ele>95</ele>
        <time>2014-01-26T09:17:09Z</time>
      </trkpt>
      <trkpt lat="50.55815" lon="4.06352">
        <ele>95</ele>
        <time>2014-01-26T09:17:20Z</time>
      </trkpt>
      <trkpt lat="50.55834" lon="4.06355">
        <ele>95</ele>
        <time>2014-01-26T09:17:37Z</time>
      </trkpt>
      <trkpt lat="50.55842" lon="4.06354">
        <ele>95</ele>
        <time>2014-01-26T09:17:42Z</time>
      </trkpt>
      <trkpt lat="50.55859" lon="4.0636">
        <ele>94</ele>
        <time>2014-01-26T09:17:55Z</time>
      </trkpt>
      <trkpt lat="50.55872" lon="4.06363">
        <ele>94</ele>
        <time>2014-01-26T09:18:05Z</time>
      </trkpt>
      <trkpt lat="50.55882" lon="4.06364">
        <ele>94</ele>
        <time>2014-01-26T09:18:15Z</time>
      </trkpt>
      <trkpt lat="50.55893" lon="4.06361">
        <ele>94</ele>
        <time>2014-01-26T09:18:26Z</time>
      </trkpt>
      <trkpt lat="50.55915" lon="4.06382">
        <ele>94</ele>
        <time>2014-01-26T09:18:43Z</time>
      </trkpt>
      <trkpt lat="50.55924" lon="4.06383">
        <ele>93</ele>
        <time>2014-01-26T09:18:49Z</time>
      </trkpt>
      <trkpt lat="50.55937" lon="4.06389">
        <ele>93</ele>
        <time>2014-01-26T09:18:59Z</time>
      </trkpt>
      <trkpt lat="50.55953" lon="4.06393">
        <ele>93</ele>
        <time>2014-01-26T09:19:10Z</time>
      </trkpt>
      <trkpt lat="50.55967" lon="4.06396">
        <ele>93</ele>
        <time>2014-01-26T09:19:21Z</time>
      </trkpt>
      <trkpt lat="50.55992" lon="4.0641">
        <ele>94</ele>
        <time>2014-01-26T09:19:40Z</time>
      </trkpt>
      <trkpt lat="50.56004" lon="4.0642">
        <ele>94</ele>
        <time>2014-01-26T09:19:50Z</time>
      </trkpt>
      <trkpt lat="50.56008" lon="4.06419">
        <ele>94</ele>
        <time>2014-01-26T09:19:54Z</time>
      </trkpt>
      <trkpt lat="50.56021" lon="4.06415">
        <ele>93</ele>
        <time>2014-01-26T09:20:10Z</time>
      </trkpt>
      <trkpt lat="50.56028" lon="4.06425">
        <ele>94</ele>
        <time>2014-01-26T09:20:16Z</time>
      </trkpt>
      <trkpt lat="50.56037" lon="4.06438">
        <ele>94</ele>
        <time>2014-01-26T09:20:27Z</time>
      </trkpt>
      <trkpt lat="50.56062" lon="4.06454">
        <ele>95</ele>
        <time>2014-01-26T09:20:48Z</time>
      </trkpt>
      <trkpt lat="50.56067" lon="4.06457">
        <ele>95</ele>
        <time>2014-01-26T09:20:52Z</time>
      </trkpt>
      <trkpt lat="50.5608" lon="4.06465">
        <ele>95</ele>
        <time>2014-01-26T09:21:06Z</time>
      </trkpt>
      <trkpt lat="50.56084" lon="4.06462">
        <ele>94</ele>
        <time>2014-01-26T09:21:11Z</time>
      </trkpt>
      <trkpt lat="50.56096" lon="4.06461">
        <ele>94</ele>
        <time>2014-01-26T09:21:23Z</time>
      </trkpt>
      <trkpt lat="50.56108" lon="4.0646">
        <ele>93</ele>
        <time>2014-01-26T09:21:36Z</time>
      </trkpt>
      <trkpt lat="50.56119" lon="4.06461">
        <ele>93</ele>
        <time>2014-01-26T09:21:44Z</time>
      </trkpt>
      <trkpt lat="50.56143" lon="4.06466">
        <ele>93</ele>
        <time>2014-01-26T09:22:01Z</time>
      </trkpt>
      <trkpt lat="50.56151" lon="4.06471">
        <ele>93</ele>
        <time>2014-01-26T09:22:07Z</time>
      </trkpt>
      <trkpt lat="50.56162" lon="4.06485">
        <ele>93</ele>
        <time>2014-01-26T09:22:17Z</time>
      </trkpt>
      <trkpt lat="50.5617" lon="4.06497">
        <ele>92</ele>
        <time>2014-01-26T09:22:28Z</time>
      </trkpt>
      <trkpt lat="50.56184" lon="4.06507">
        <ele>92</ele>
        <time>2014-01-26T09:22:39Z</time>
      </trkpt>
      <trkpt lat="50.56196" lon="4.0651">
        <ele>92</ele>
        <time>2014-01-26T09:22:50Z</time>
      </trkpt>
      <trkpt lat="50.56213" lon="4.06507">
        <ele>93</ele>
        <time>2014-01-26T09:23:04Z</time>
      </trkpt>
      <trkpt lat="50.56237" lon="4.06495">
        <ele>93</ele>
        <time>2014-01-26T09:23:21Z</time>
      </trkpt>
      <trkpt lat="50.5624" lon="4.06494">
        <ele>93</ele>
        <time>2014-01-26T09:23:23Z</time>
      </trkpt>
      <trkpt lat="50.5625" lon="4.06484">
        <ele>94</ele>
        <time>2014-01-26T09:23:34Z</time>
      </trkpt>
      <trkpt lat="50.5626" lon="4.06478">
        <ele>94</ele>
        <time>2014-01-26T09:23:45Z</time>
      </trkpt>
      <trkpt lat="50.5628" lon="4.06473">
        <ele>94</ele>
        <time>2014-01-26T09:24:02Z</time>
      </trkpt>
      <trkpt lat="50.56285" lon="4.06475">
        <ele>94</ele>
        <time>2014-01-26T09:24:07Z</time>
      </trkpt>
      <trkpt lat="50.56295" lon="4.06485">
        <ele>95</ele>
        <time>2014-01-26T09:24:18Z</time>
      </trkpt>
      <trkpt lat="50.56306" lon="4.06492">
        <ele>95</ele>
        <time>2014-01-26T09:24:29Z</time>
      </trkpt>
      <trkpt lat="50.56316" lon="4.06505">
        <ele>95</ele>
        <time>2014-01-26T09:24:40Z</time>
      </trkpt>
      <trkpt lat="50.56326" lon="4.06503">
        <ele>95</ele>
        <time>2014-01-26T09:24:51Z</time>
      </trkpt>
      <trkpt lat="50.56334" lon="4.065">
        <ele>96</ele>
        <time>2014-01-26T09:25:02Z</time>
      </trkpt>
      <trkpt lat="50.56345" lon="4.06488">
        <ele>96</ele>
        <time>2014-01-26T09:25:13Z</time>
      </trkpt>
      <trkpt lat="50.56364" lon="4.06483">
        <ele>95</ele>
        <time>2014-01-26T09:25:25Z</time>
      </trkpt>
      <trkpt lat="50.56386" lon="4.06475">
        <ele>95</ele>
        <time>2014-01-26T09:25:44Z</time>
      </trkpt>
      <trkpt lat="50.56388" lon="4.06474">
        <ele>95</ele>
        <time>2014-01-26T09:25:46Z</time>
      </trkpt>
      <trkpt lat="50.56405" lon="4.06472">
        <ele>95</ele>
        <time>2014-01-26T09:26:00Z</time>
      </trkpt>
      <trkpt lat="50.56419" lon="4.0647">
        <ele>95</ele>
        <time>2014-01-26T09:26:08Z</time>
      </trkpt>
      <trkpt lat="50.5644" lon="4.06473">
        <ele>95</ele>
        <time>2014-01-26T09:26:21Z</time>
      </trkpt>
      <trkpt lat="50.56463" lon="4.06467">
        <ele>95</ele>
        <time>2014-01-26T09:26:38Z</time>
      </trkpt>
      <trkpt lat="50.56473" lon="4.06465">
        <ele>95</ele>
        <time>2014-01-26T09:26:46Z</time>
      </trkpt>
      <trkpt lat="50.56482" lon="4.06465">
        <ele>95</ele>
        <time>2014-01-26T09:26:52Z</time>
      </trkpt>
      <trkpt lat="50.56504" lon="4.0646">
        <ele>95</ele>
        <time>2014-01-26T09:27:08Z</time>
      </trkpt>
      <trkpt lat="50.56512" lon="4.06458">
        <ele>95</ele>
        <time>2014-01-26T09:27:14Z</time>
      </trkpt>
      <trkpt lat="50.56527" lon="4.06456">
        <ele>95</ele>
        <time>2014-01-26T09:27:25Z</time>
      </trkpt>
      <trkpt lat="50.56536" lon="4.06445">
        <ele>95</ele>
        <time>2014-01-26T09:27:36Z</time>
      </trkpt>
      <trkpt lat="50.5655" lon="4.06442">
        <ele>95</ele>
        <time>2014-01-26T09:27:47Z</time>
      </trkpt>
      <trkpt lat="50.5656" lon="4.06441">
        <ele>95</ele>
        <time>2014-01-26T09:28:01Z</time>
      </trkpt>
      <trkpt lat="50.56568" lon="4.06436">
        <ele>95</ele>
        <time>2014-01-26T09:28:09Z</time>
      </trkpt>
      <trkpt lat="50.56581" lon="4.06434">
        <ele>95</ele>
        <time>2014-01-26T09:28:20Z</time>
      </trkpt>
      <trkpt lat="50.56595" lon="4.06425">
        <ele>96</ele>
        <time>2014-01-26T09:28:31Z</time>
      </trkpt>
      <trkpt lat="50.56622" lon="4.06416">
        <ele>96</ele>
        <time>2014-01-26T09:28:52Z</time>
      </trkpt>
      <trkpt lat="50.56624" lon="4.06415">
        <ele>96</ele>
        <time>2014-01-26T09:28:54Z</time>
      </trkpt>
      <trkpt lat="50.56638" lon="4.06412">
        <ele>96</ele>
        <time>2014-01-26T09:29:04Z</time>
      </trkpt>
      <trkpt lat="50.56659" lon="4.06404">
        <ele>95</ele>
        <time>2014-01-26T09:29:23Z</time>
      </trkpt>
      <trkpt lat="50.56675" lon="4.06393">
        <ele>95</ele>
        <time>2014-01-26T09:29:36Z</time>
      </trkpt>
      <trkpt lat="50.56676" lon="4.06392">
        <ele>95</ele>
        <time>2014-01-26T09:29:37Z</time>
      </trkpt>
      <trkpt lat="50.56693" lon="4.06385">
        <ele>95</ele>
        <time>2014-01-26T09:29:49Z</time>
      </trkpt>
      <trkpt lat="50.56704" lon="4.06373">
        <ele>95</ele>
        <time>2014-01-26T09:29:59Z</time>
      </trkpt>
      <trkpt lat="50.56725" lon="4.06366">
        <ele>94</ele>
        <time>2014-01-26T09:30:20Z</time>
      </trkpt>
      <trkpt lat="50.56726" lon="4.06366">
        <ele>94</ele>
        <time>2014-01-26T09:30:21Z</time>
      </trkpt>
      <trkpt lat="50.56738" lon="4.06363">
        <ele>94</ele>
        <time>2014-01-26T09:30:35Z</time>
      </trkpt>
      <trkpt lat="50.5675" lon="4.06342">
        <ele>94</ele>
        <time>2014-01-26T09:30:48Z</time>
      </trkpt>
      <trkpt lat="50.56759" lon="4.06325">
        <ele>94</ele>
        <time>2014-01-26T09:30:59Z</time>
      </trkpt>
      <trkpt lat="50.56759" lon="4.06315">
        <ele>94</ele>
        <time>2014-01-26T09:31:05Z</time>
      </trkpt>
      <trkpt lat="50.56756" lon="4.06298">
        <ele>94</ele>
        <time>2014-01-26T09:31:16Z</time>
      </trkpt>
      <trkpt lat="50.5675" lon="4.06276">
        <ele>95</ele>
        <time>2014-01-26T09:31:28Z</time>
      </trkpt>
      <trkpt lat="50.56746" lon="4.06257">
        <ele>95</ele>
        <time>2014-01-26T09:31:38Z</time>
      </trkpt>
      <trkpt lat="50.5674" lon="4.06238">
        <ele>95</ele>
        <time>2014-01-26T09:31:49Z</time>
      </trkpt>
      <trkpt lat="50.56736" lon="4.06221">
        <ele>96</ele>
        <time>2014-01-26T09:32:00Z</time>
      </trkpt>
      <trkpt lat="50.56724" lon="4.06193">
        <ele>96</ele>
        <time>2014-01-26T09:32:16Z</time>
      </trkpt>
      <trkpt lat="50.56713" lon="4.06171">
        <ele>96</ele>
        <time>2014-01-26T09:32:31Z</time>
      </trkpt>
      <trkpt lat="50.5671" lon="4.06168">
        <ele>96</ele>
        <time>2014-01-26T09:32:33Z</time>
      </trkpt>
      <trkpt lat="50.56704" lon="4.06153">
        <ele>96</ele>
        <time>2014-01-26T09:32:44Z</time>
      </trkpt>
      <trkpt lat="50.56693" lon="4.06134">
        <ele>96</ele>
        <time>2014-01-26T09:32:55Z</time>
      </trkpt>
      <trkpt lat="50.56685" lon="4.06118">
        <ele>96</ele>
        <time>2014-01-26T09:33:06Z</time>
      </trkpt>
      <trkpt lat="50.56676" lon="4.06098">
        <ele>96</ele>
        <time>2014-01-26T09:33:18Z</time>
      </trkpt>
      <trkpt lat="50.56673" lon="4.06087">
        <ele>97</ele>
        <time>2014-01-26T09:33:28Z</time>
      </trkpt>
      <trkpt lat="50.56662" lon="4.06061">
        <ele>97</ele>
        <time>2014-01-26T09:33:42Z</time>
      </trkpt>
      <trkpt lat="50.56662" lon="4.06046">
        <ele>97</ele>
        <time>2014-01-26T09:33:50Z</time>
      </trkpt>
      <trkpt lat="50.56665" lon="4.06025">
        <ele>97</ele>
        <time>2014-01-26T09:34:01Z</time>
      </trkpt>
      <trkpt lat="50.56677" lon="4.06008">
        <ele>97</ele>
        <time>2014-01-26T09:34:13Z</time>
      </trkpt>
      <trkpt lat="50.56681" lon="4.05995">
        <ele>96</ele>
        <time>2014-01-26T09:34:23Z</time>
      </trkpt>
      <trkpt lat="50.56704" lon="4.05976">
        <ele>96</ele>
        <time>2014-01-26T09:34:42Z</time>
      </trkpt>
      <trkpt lat="50.56711" lon="4.05971">
        <ele>96</ele>
        <time>2014-01-26T09:34:48Z</time>
      </trkpt>
      <trkpt lat="50.56721" lon="4.05962">
        <ele>95</ele>
        <time>2014-01-26T09:34:57Z</time>
      </trkpt>
      <trkpt lat="50.56733" lon="4.05951">
        <ele>95</ele>
        <time>2014-01-26T09:35:09Z</time>
      </trkpt>
      <trkpt lat="50.56762" lon="4.05933">
        <ele>94</ele>
        <time>2014-01-26T09:35:27Z</time>
      </trkpt>
      <trkpt lat="50.56765" lon="4.05931">
        <ele>94</ele>
        <time>2014-01-26T09:35:29Z</time>
      </trkpt>
      <trkpt lat="50.56778" lon="4.0592">
        <ele>94</ele>
        <time>2014-01-26T09:35:40Z</time>
      </trkpt>
      <trkpt lat="50.56789" lon="4.05911">
        <ele>93</ele>
        <time>2014-01-26T09:35:51Z</time>
      </trkpt>
      <trkpt lat="50.56797" lon="4.05897">
        <ele>93</ele>
        <time>2014-01-26T09:36:02Z</time>
      </trkpt>
      <trkpt lat="50.56802" lon="4.05873">
        <ele>93</ele>
        <time>2014-01-26T09:36:16Z</time>
      </trkpt>
      <trkpt lat="50.56805" lon="4.05859">
        <ele>93</ele>
        <time>2014-01-26T09:36:24Z</time>
      </trkpt>
      <trkpt lat="50.56808" lon="4.05821">
        <ele>92</ele>
        <time>2014-01-26T09:36:44Z</time>
      </trkpt>
      <trkpt lat="50.56808" lon="4.05816">
        <ele>93</ele>
        <time>2014-01-26T09:36:46Z</time>
      </trkpt>
      <trkpt lat="50.56809" lon="4.05788">
        <ele>93</ele>
        <time>2014-01-26T09:37:00Z</time>
      </trkpt>
      <trkpt lat="50.56814" lon="4.05775">
        <ele>93</ele>
        <time>2014-01-26T09:37:09Z</time>
      </trkpt>
      <trkpt lat="50.56816" lon="4.05756">
        <ele>93</ele>
        <time>2014-01-26T09:37:19Z</time>
      </trkpt>
      <trkpt lat="50.56814" lon="4.0573">
        <ele>93</ele>
        <time>2014-01-26T09:37:31Z</time>
      </trkpt>
      <trkpt lat="50.56815" lon="4.05713">
        <ele>93</ele>
        <time>2014-01-26T09:37:41Z</time>
      </trkpt>
      <trkpt lat="50.56814" lon="4.05694">
        <ele>93</ele>
        <time>2014-01-26T09:37:52Z</time>
      </trkpt>
      <trkpt lat="50.56807" lon="4.05668">
        <ele>93</ele>
        <time>2014-01-26T09:38:05Z</time>
      </trkpt>
      <trkpt lat="50.56799" lon="4.05641">
        <ele>94</ele>
        <time>2014-01-26T09:38:15Z</time>
      </trkpt>
      <trkpt lat="50.56794" lon="4.05626">
        <ele>94</ele>
        <time>2014-01-26T09:38:25Z</time>
      </trkpt>
      <trkpt lat="50.56793" lon="4.05606">
        <ele>94</ele>
        <time>2014-01-26T09:38:36Z</time>
      </trkpt>
      <trkpt lat="50.56794" lon="4.05579">
        <ele>94</ele>
        <time>2014-01-26T09:38:53Z</time>
      </trkpt>
      <trkpt lat="50.56791" lon="4.05575">
        <ele>94</ele>
        <time>2014-01-26T09:38:58Z</time>
      </trkpt>
      <trkpt lat="50.56784" lon="4.05558">
        <ele>94</ele>
        <time>2014-01-26T09:39:14Z</time>
      </trkpt>
      <trkpt lat="50.5678" lon="4.05549">
        <ele>94</ele>
        <time>2014-01-26T09:39:20Z</time>
      </trkpt>
      <trkpt lat="50.56771" lon="4.05527">
        <ele>94</ele>
        <time>2014-01-26T09:39:35Z</time>
      </trkpt>
      <trkpt lat="50.56753" lon="4.05519">
        <ele>94</ele>
        <time>2014-01-26T09:39:48Z</time>
      </trkpt>
      <trkpt lat="50.56742" lon="4.05509">
        <ele>94</ele>
        <time>2014-01-26T09:39:59Z</time>
      </trkpt>
      <trkpt lat="50.56731" lon="4.05494">
        <ele>94</ele>
        <time>2014-01-26T09:40:08Z</time>
      </trkpt>
      <trkpt lat="50.56723" lon="4.05482">
        <ele>95</ele>
        <time>2014-01-26T09:40:15Z</time>
      </trkpt>
      <trkpt lat="50.56705" lon="4.05454">
        <ele>95</ele>
        <time>2014-01-26T09:40:26Z</time>
      </trkpt>
      <trkpt lat="50.56686" lon="4.05432">
        <ele>95</ele>
        <time>2014-01-26T09:40:40Z</time>
      </trkpt>
      <trkpt lat="50.56677" lon="4.05427">
        <ele>95</ele>
        <time>2014-01-26T09:40:48Z</time>
      </trkpt>
      <trkpt lat="50.56662" lon="4.05416">
        <ele>95</ele>
        <time>2014-01-26T09:40:59Z</time>
      </trkpt>
      <trkpt lat="50.56648" lon="4.0541">
        <ele>95</ele>
        <time>2014-01-26T09:41:10Z</time>
      </trkpt>
      <trkpt lat="50.56637" lon="4.05402">
        <ele>95</ele>
        <time>2014-01-26T09:41:21Z</time>
      </trkpt>
      <trkpt lat="50.56626" lon="4.05395">
        <ele>95</ele>
        <time>2014-01-26T09:41:32Z</time>
      </trkpt>
      <trkpt lat="50.56612" lon="4.05389">
        <ele>95</ele>
        <time>2014-01-26T09:41:43Z</time>
      </trkpt>
      <trkpt lat="50.56598" lon="4.05385">
        <ele>95</ele>
        <time>2014-01-26T09:41:54Z</time>
      </trkpt>
      <trkpt lat="50.56584" lon="4.0538">
        <ele>96</ele>
        <time>2014-01-26T09:42:05Z</time>
      </trkpt>
      <trkpt lat="50.56571" lon="4.05375">
        <ele>96</ele>
        <time>2014-01-26T09:42:16Z</time>
      </trkpt>
      <trkpt lat="50.56555" lon="4.0537">
        <ele>96</ele>
        <time>2014-01-26T09:42:27Z</time>
      </trkpt>
      <trkpt lat="50.56543" lon="4.05365">
        <ele>96</ele>
        <time>2014-01-26T09:42:38Z</time>
      </trkpt>
      <trkpt lat="50.56529" lon="4.05363">
        <ele>96</ele>
        <time>2014-01-26T09:42:50Z</time>
      </trkpt>
      <trkpt lat="50.56515" lon="4.05355">
        <ele>96</ele>
        <time>2014-01-26T09:43:01Z</time>
      </trkpt>
      <trkpt lat="50.56502" lon="4.0535">
        <ele>97</ele>
        <time>2014-01-26T09:43:13Z</time>
      </trkpt>
      <trkpt lat="50.56487" lon="4.05342">
        <ele>97</ele>
        <time>2014-01-26T09:43:25Z</time>
      </trkpt>
      <trkpt lat="50.56473" lon="4.05337">
        <ele>97</ele>
        <time>2014-01-26T09:43:36Z</time>
      </trkpt>
      <trkpt lat="50.56459" lon="4.0533">
        <ele>96</ele>
        <time>2014-01-26T09:43:48Z</time>
      </trkpt>
      <trkpt lat="50.56447" lon="4.05324">
        <ele>96</ele>
        <time>2014-01-26T09:43:58Z</time>
      </trkpt>
      <trkpt lat="50.56434" lon="4.05317">
        <ele>96</ele>
        <time>2014-01-26T09:44:09Z</time>
      </trkpt>
      <trkpt lat="50.56422" lon="4.05313">
        <ele>96</ele>
        <time>2014-01-26T09:44:20Z</time>
      </trkpt>
      <trkpt lat="50.56409" lon="4.05307">
        <ele>97</ele>
        <time>2014-01-26T09:44:31Z</time>
      </trkpt>
      <trkpt lat="50.56398" lon="4.05301">
        <ele>97</ele>
        <time>2014-01-26T09:44:42Z</time>
      </trkpt>
      <trkpt lat="50.56383" lon="4.05292">
        <ele>97</ele>
        <time>2014-01-26T09:44:54Z</time>
      </trkpt>
      <trkpt lat="50.56368" lon="4.05282">
        <ele>97</ele>
        <time>2014-01-26T09:45:06Z</time>
      </trkpt>
      <trkpt lat="50.56357" lon="4.05277">
        <ele>97</ele>
        <time>2014-01-26T09:45:17Z</time>
      </trkpt>
      <trkpt lat="50.56334" lon="4.05263">
        <ele>97</ele>
        <time>2014-01-26T09:45:36Z</time>
      </trkpt>
      <trkpt lat="50.56331" lon="4.05262">
        <ele>97</ele>
        <time>2014-01-26T09:45:39Z</time>
      </trkpt>
      <trkpt lat="50.56318" lon="4.05255">
        <ele>97</ele>
        <time>2014-01-26T09:45:50Z</time>
      </trkpt>
      <trkpt lat="50.56304" lon="4.05246">
        <ele>96</ele>
        <time>2014-01-26T09:46:02Z</time>
      </trkpt>
      <trkpt lat="50.56293" lon="4.05227">
        <ele>96</ele>
        <time>2014-01-26T09:46:15Z</time>
      </trkpt>
      <trkpt lat="50.56289" lon="4.05213">
        <ele>96</ele>
        <time>2014-01-26T09:46:23Z</time>
      </trkpt>
      <trkpt lat="50.56287" lon="4.05197">
        <ele>95</ele>
        <time>2014-01-26T09:46:34Z</time>
      </trkpt>
      <trkpt lat="50.56285" lon="4.05176">
        <ele>95</ele>
        <time>2014-01-26T09:46:45Z</time>
      </trkpt>
      <trkpt lat="50.5628" lon="4.05142">
        <ele>94</ele>
        <time>2014-01-26T09:47:01Z</time>
      </trkpt>
      <trkpt lat="50.56279" lon="4.05131">
        <ele>94</ele>
        <time>2014-01-26T09:47:07Z</time>
      </trkpt>
      <trkpt lat="50.56277" lon="4.05114">
        <ele>94</ele>
        <time>2014-01-26T09:47:18Z</time>
      </trkpt>
      <trkpt lat="50.56275" lon="4.05094">
        <ele>93</ele>
        <time>2014-01-26T09:47:29Z</time>
      </trkpt>
      <trkpt lat="50.56275" lon="4.05073">
        <ele>93</ele>
        <time>2014-01-26T09:47:41Z</time>
      </trkpt>
      <trkpt lat="50.5627" lon="4.05054">
        <ele>92</ele>
        <time>2014-01-26T09:47:51Z</time>
      </trkpt>
      <trkpt lat="50.56264" lon="4.05035">
        <ele>92</ele>
        <time>2014-01-26T09:48:02Z</time>
      </trkpt>
      <trkpt lat="50.56253" lon="4.05019">
        <ele>92</ele>
        <time>2014-01-26T09:48:13Z</time>
      </trkpt>
      <trkpt lat="50.56242" lon="4.05006">
        <ele>92</ele>
        <time>2014-01-26T09:48:24Z</time>
      </trkpt>
      <trkpt lat="50.56231" lon="4.04996">
        <ele>92</ele>
        <time>2014-01-26T09:48:35Z</time>
      </trkpt>
      <trkpt lat="50.56219" lon="4.04983">
        <ele>92</ele>
        <time>2014-01-26T09:48:46Z</time>
      </trkpt>
      <trkpt lat="50.56206" lon="4.0497">
        <ele>93</ele>
        <time>2014-01-26T09:48:57Z</time>
      </trkpt>
      <trkpt lat="50.56194" lon="4.04953">
        <ele>93</ele>
        <time>2014-01-26T09:49:08Z</time>
      </trkpt>
      <trkpt lat="50.56187" lon="4.04942">
        <ele>93</ele>
        <time>2014-01-26T09:49:19Z</time>
      </trkpt>
      <trkpt lat="50.56178" lon="4.04929">
        <ele>93</ele>
        <time>2014-01-26T09:49:30Z</time>
      </trkpt>
      <trkpt lat="50.56163" lon="4.04911">
        <ele>93</ele>
        <time>2014-01-26T09:49:46Z</time>
      </trkpt>
      <trkpt lat="50.56156" lon="4.04905">
        <ele>93</ele>
        <time>2014-01-26T09:49:52Z</time>
      </trkpt>
      <trkpt lat="50.56143" lon="4.04893">
        <ele>93</ele>
        <time>2014-01-26T09:50:04Z</time>
      </trkpt>
      <trkpt lat="50.56129" lon="4.0488">
        <ele>93</ele>
        <time>2014-01-26T09:50:14Z</time>
      </trkpt>
      <trkpt lat="50.56116" lon="4.04868">
        <ele>94</ele>
        <time>2014-01-26T09:50:27Z</time>
      </trkpt>
      <trkpt lat="50.56097" lon="4.04858">
        <ele>94</ele>
        <time>2014-01-26T09:50:45Z</time>
      </trkpt>
      <trkpt lat="50.56095" lon="4.04856">
        <ele>94</ele>
        <time>2014-01-26T09:50:47Z</time>
      </trkpt>
      <trkpt lat="50.56081" lon="4.04843">
        <ele>94</ele>
        <time>2014-01-26T09:50:58Z</time>
      </trkpt>
      <trkpt lat="50.56065" lon="4.04831">
        <ele>94</ele>
        <time>2014-01-26T09:51:10Z</time>
      </trkpt>
      <trkpt lat="50.56054" lon="4.04824">
        <ele>95</ele>
        <time>2014-01-26T09:51:20Z</time>
      </trkpt>
      <trkpt lat="50.56041" lon="4.04814">
        <ele>95</ele>
        <time>2014-01-26T09:51:31Z</time>
      </trkpt>
      <trkpt lat="50.56022" lon="4.04795">
        <ele>95</ele>
        <time>2014-01-26T09:51:48Z</time>
      </trkpt>
      <trkpt lat="50.56017" lon="4.04789">
        <ele>95</ele>
        <time>2014-01-26T09:51:53Z</time>
      </trkpt>
      <trkpt lat="50.56007" lon="4.04776">
        <ele>95</ele>
        <time>2014-01-26T09:52:04Z</time>
      </trkpt>
      <trkpt lat="50.55989" lon="4.04765">
        <ele>96</ele>
        <time>2014-01-26T09:52:23Z</time>
      </trkpt>
      <trkpt lat="50.55986" lon="4.04762">
        <ele>96</ele>
        <time>2014-01-26T09:52:26Z</time>
      </trkpt>
      <trkpt lat="50.55973" lon="4.04749">
        <ele>97</ele>
        <time>2014-01-26T09:52:37Z</time>
      </trkpt>
      <trkpt lat="50.55963" lon="4.04738">
        <ele>97</ele>
        <time>2014-01-26T09:52:48Z</time>
      </trkpt>
      <trkpt lat="50.55953" lon="4.04727">
        <ele>97</ele>
        <time>2014-01-26T09:52:59Z</time>
      </trkpt>
      <trkpt lat="50.55942" lon="4.04717">
        <ele>97</ele>
        <time>2014-01-26T09:53:10Z</time>
      </trkpt>
      <trkpt lat="50.55932" lon="4.04708">
        <ele>97</ele>
        <time>2014-01-26T09:53:21Z</time>
      </trkpt>
      <trkpt lat="50.55919" lon="4.04697">
        <ele>97</ele>
        <time>2014-01-26T09:53:32Z</time>
      </trkpt>
      <trkpt lat="50.55907" lon="4.04687">
        <ele>97</ele>
        <time>2014-01-26T09:53:43Z</time>
      </trkpt>
      <trkpt lat="50.55893" lon="4.04675">
        <ele>97</ele>
        <time>2014-01-26T09:53:54Z</time>
      </trkpt>
      <trkpt lat="50.55879" lon="4.04664">
        <ele>98</ele>
        <time>2014-01-26T09:54:05Z</time>
      </trkpt>
      <trkpt lat="50.55863" lon="4.04652">
        <ele>98</ele>
        <time>2014-01-26T09:54:18Z</time>
      </trkpt>
      <trkpt lat="50.5585" lon="4.04638">
        <ele>98</ele>
        <time>2014-01-26T09:54:29Z</time>
      </trkpt>
      <trkpt lat="50.55835" lon="4.04629">
        <ele>98</ele>
        <time>2014-01-26T09:54:41Z</time>
      </trkpt>
      <trkpt lat="50.55822" lon="4.04618">
        <ele>98</ele>
        <time>2014-01-26T09:54:52Z</time>
      </trkpt>
      <trkpt lat="50.55811" lon="4.04609">
        <ele>98</ele>
        <time>2014-01-26T09:55:03Z</time>
      </trkpt>
      <trkpt lat="50.55798" lon="4.046">
        <ele>98</ele>
        <time>2014-01-26T09:55:14Z</time>
      </trkpt>
      <trkpt lat="50.55785" lon="4.04592">
        <ele>98</ele>
        <time>2014-01-26T09:55:25Z</time>
      </trkpt>
      <trkpt lat="50.55772" lon="4.04581">
        <ele>99</ele>
        <time>2014-01-26T09:55:36Z</time>
      </trkpt>
      <trkpt lat="50.55762" lon="4.04568">
        <ele>99</ele>
        <time>2014-01-26T09:55:48Z</time>
      </trkpt>
      <trkpt lat="50.55749" lon="4.04559">
        <ele>99</ele>
        <time>2014-01-26T09:55:59Z</time>
      </trkpt>
      <trkpt lat="50.55733" lon="4.04546">
        <ele>99</ele>
        <time>2014-01-26T09:56:10Z</time>
      </trkpt>
      <trkpt lat="50.55715" lon="4.04526">
        <ele>99</ele>
        <time>2014-01-26T09:56:28Z</time>
      </trkpt>
      <trkpt lat="50.55711" lon="4.04523">
        <ele>99</ele>
        <time>2014-01-26T09:56:32Z</time>
      </trkpt>
      <trkpt lat="50.55702" lon="4.04504">
        <ele>99</ele>
        <time>2014-01-26T09:56:44Z</time>
      </trkpt>
      <trkpt lat="50.55686" lon="4.04485">
        <ele>99</ele>
        <time>2014-01-26T09:57:00Z</time>
      </trkpt>
      <trkpt lat="50.55676" lon="4.04471">
        <ele>99</ele>
        <time>2014-01-26T09:57:09Z</time>
      </trkpt>
      <trkpt lat="50.55667" lon="4.04462">
        <ele>99</ele>
        <time>2014-01-26T09:57:16Z</time>
      </trkpt>
      <trkpt lat="50.55652" lon="4.04451">
        <ele>100</ele>
        <time>2014-01-26T09:57:28Z</time>
      </trkpt>
      <trkpt lat="50.5564" lon="4.0444">
        <ele>100</ele>
        <time>2014-01-26T09:57:38Z</time>
      </trkpt>
      <trkpt lat="50.55629" lon="4.04427">
        <ele>100</ele>
        <time>2014-01-26T09:57:49Z</time>
      </trkpt>
      <trkpt lat="50.55617" lon="4.04413">
        <ele>99</ele>
        <time>2014-01-26T09:58:00Z</time>
      </trkpt>
      <trkpt lat="50.55606" lon="4.04399">
        <ele>99</ele>
        <time>2014-01-26T09:58:11Z</time>
      </trkpt>
      <trkpt lat="50.55597" lon="4.0439">
        <ele>99</ele>
        <time>2014-01-26T09:58:22Z</time>
      </trkpt>
      <trkpt lat="50.55585" lon="4.04377">
        <ele>99</ele>
        <time>2014-01-26T09:58:33Z</time>
      </trkpt>
      <trkpt lat="50.5557" lon="4.04355">
        <ele>100</ele>
        <time>2014-01-26T09:58:48Z</time>
      </trkpt>
      <trkpt lat="50.55561" lon="4.04345">
        <ele>100</ele>
        <time>2014-01-26T09:58:57Z</time>
      </trkpt>
      <trkpt lat="50.55548" lon="4.04331">
        <ele>100</ele>
        <time>2014-01-26T09:59:09Z</time>
      </trkpt>
      <trkpt lat="50.55535" lon="4.04319">
        <ele>100</ele>
        <time>2014-01-26T09:59:22Z</time>
      </trkpt>
      <trkpt lat="50.55521" lon="4.04307">
        <ele>100</ele>
        <time>2014-01-26T09:59:35Z</time>
      </trkpt>
      <trkpt lat="50.55508" lon="4.04296">
        <ele>100</ele>
        <time>2014-01-26T09:59:46Z</time>
      </trkpt>
      <trkpt lat="50.55497" lon="4.04285">
        <ele>102</ele>
        <time>2014-01-26T09:59:57Z</time>
      </trkpt>
      <trkpt lat="50.55499" lon="4.0427">
        <ele>102</ele>
        <time>2014-01-26T10:00:09Z</time>
      </trkpt>
      <trkpt lat="50.55503" lon="4.04254">
        <ele>102</ele>
        <time>2014-01-26T10:00:22Z</time>
      </trkpt>
      <trkpt lat="50.55507" lon="4.04235">
        <ele>101</ele>
        <time>2014-01-26T10:00:33Z</time>
      </trkpt>
      <trkpt lat="50.55508" lon="4.04215">
        <ele>101</ele>
        <time>2014-01-26T10:00:44Z</time>
      </trkpt>
      <trkpt lat="50.55502" lon="4.04192">
        <ele>101</ele>
        <time>2014-01-26T10:00:56Z</time>
      </trkpt>
      <trkpt lat="50.55494" lon="4.04168">
        <ele>102</ele>
        <time>2014-01-26T10:01:08Z</time>
      </trkpt>
      <trkpt lat="50.55487" lon="4.04147">
        <ele>102</ele>
        <time>2014-01-26T10:01:21Z</time>
      </trkpt>
      <trkpt lat="50.5548" lon="4.04129">
        <ele>102</ele>
        <time>2014-01-26T10:01:34Z</time>
      </trkpt>
      <trkpt lat="50.55472" lon="4.04106">
        <ele>101</ele>
        <time>2014-01-26T10:01:47Z</time>
      </trkpt>
      <trkpt lat="50.55461" lon="4.04082">
        <ele>101</ele>
        <time>2014-01-26T10:02:00Z</time>
      </trkpt>
      <trkpt lat="50.55451" lon="4.04055">
        <ele>101</ele>
        <time>2014-01-26T10:02:13Z</time>
      </trkpt>
      <trkpt lat="50.55441" lon="4.0403">
        <ele>101</ele>
        <time>2014-01-26T10:02:27Z</time>
      </trkpt>
      <trkpt lat="50.55434" lon="4.0401">
        <ele>100</ele>
        <time>2014-01-26T10:02:40Z</time>
      </trkpt>
      <trkpt lat="50.55426" lon="4.0399">
        <ele>100</ele>
        <time>2014-01-26T10:02:53Z</time>
      </trkpt>
      <trkpt lat="50.55419" lon="4.0397">
        <ele>100</ele>
        <time>2014-01-26T10:03:05Z</time>
      </trkpt>
      <trkpt lat="50.55411" lon="4.03948">
        <ele>99</ele>
        <time>2014-01-26T10:03:19Z</time>
      </trkpt>
      <trkpt lat="50.55404" lon="4.03929">
        <ele>98</ele>
        <time>2014-01-26T10:03:32Z</time>
      </trkpt>
      <trkpt lat="50.55394" lon="4.03904">
        <ele>98</ele>
        <time>2014-01-26T10:03:46Z</time>
      </trkpt>
      <trkpt lat="50.55387" lon="4.03886">
        <ele>98</ele>
        <time>2014-01-26T10:03:57Z</time>
      </trkpt>
      <trkpt lat="50.5538" lon="4.03869">
        <ele>97</ele>
        <time>2014-01-26T10:04:08Z</time>
      </trkpt>
      <trkpt lat="50.55373" lon="4.0384">
        <ele>97</ele>
        <time>2014-01-26T10:04:22Z</time>
      </trkpt>
      <trkpt lat="50.55369" lon="4.03821">
        <ele>96</ele>
        <time>2014-01-26T10:04:33Z</time>
      </trkpt>
      <trkpt lat="50.55364" lon="4.03799">
        <ele>96</ele>
        <time>2014-01-26T10:04:46Z</time>
      </trkpt>
      <trkpt lat="50.55354" lon="4.0378">
        <ele>96</ele>
        <time>2014-01-26T10:04:58Z</time>
      </trkpt>
      <trkpt lat="50.55346" lon="4.03763">
        <ele>96</ele>
        <time>2014-01-26T10:05:09Z</time>
      </trkpt>
      <trkpt lat="50.55335" lon="4.03748">
        <ele>96</ele>
        <time>2014-01-26T10:05:20Z</time>
      </trkpt>
      <trkpt lat="50.5532" lon="4.03736">
        <ele>96</ele>
        <time>2014-01-26T10:05:32Z</time>
      </trkpt>
      <trkpt lat="50.55303" lon="4.03726">
        <ele>97</ele>
        <time>2014-01-26T10:05:43Z</time>
      </trkpt>
      <trkpt lat="50.55288" lon="4.03725">
        <ele>97</ele>
        <time>2014-01-26T10:05:54Z</time>
      </trkpt>
      <trkpt lat="50.55272" lon="4.03726">
        <ele>97</ele>
        <time>2014-01-26T10:06:07Z</time>
      </trkpt>
      <trkpt lat="50.55258" lon="4.03729">
        <ele>97</ele>
        <time>2014-01-26T10:06:19Z</time>
      </trkpt>
      <trkpt lat="50.55242" lon="4.0373">
        <ele>99</ele>
        <time>2014-01-26T10:06:32Z</time>
      </trkpt>
      <trkpt lat="50.55223" lon="4.03728">
        <ele>99</ele>
        <time>2014-01-26T10:06:49Z</time>
      </trkpt>
      <trkpt lat="50.55211" lon="4.03723">
        <ele>99</ele>
        <time>2014-01-26T10:06:59Z</time>
      </trkpt>
      <trkpt lat="50.55198" lon="4.03714">
        <ele>99</ele>
        <time>2014-01-26T10:07:11Z</time>
      </trkpt>
      <trkpt lat="50.55185" lon="4.03705">
        <ele>99</ele>
        <time>2014-01-26T10:07:23Z</time>
      </trkpt>
      <trkpt lat="50.55172" lon="4.03697">
        <ele>99</ele>
        <time>2014-01-26T10:07:34Z</time>
      </trkpt>
      <trkpt lat="50.55159" lon="4.03688">
        <ele>100</ele>
        <time>2014-01-26T10:07:46Z</time>
      </trkpt>
      <trkpt lat="50.55146" lon="4.03682">
        <ele>100</ele>
        <time>2014-01-26T10:07:58Z</time>
      </trkpt>
      <trkpt lat="50.55132" lon="4.03679">
        <ele>100</ele>
        <time>2014-01-26T10:08:10Z</time>
      </trkpt>
      <trkpt lat="50.55117" lon="4.03674">
        <ele>100</ele>
        <time>2014-01-26T10:08:23Z</time>
      </trkpt>
      <trkpt lat="50.55103" lon="4.03668">
        <ele>100</ele>
        <time>2014-01-26T10:08:35Z</time>
      </trkpt>
      <trkpt lat="50.55089" lon="4.03665">
        <ele>100</ele>
        <time>2014-01-26T10:08:47Z</time>
      </trkpt>
      <trkpt lat="50.55073" lon="4.03661">
        <ele>100</ele>
        <time>2014-01-26T10:09:02Z</time>
      </trkpt>
      <trkpt lat="50.5506" lon="4.03656">
        <ele>100</ele>
        <time>2014-01-26T10:09:13Z</time>
      </trkpt>
      <trkpt lat="50.55046" lon="4.03654">
        <ele>101</ele>
        <time>2014-01-26T10:09:26Z</time>
      </trkpt>
      <trkpt lat="50.55032" lon="4.03649">
        <ele>101</ele>
        <time>2014-01-26T10:09:38Z</time>
      </trkpt>
      <trkpt lat="50.55017" lon="4.03647">
        <ele>101</ele>
        <time>2014-01-26T10:09:50Z</time>
      </trkpt>
      <trkpt lat="50.55003" lon="4.03643">
        <ele>101</ele>
        <time>2014-01-26T10:10:01Z</time>
      </trkpt>
      <trkpt lat="50.54989" lon="4.03637">
        <ele>102</ele>
        <time>2014-01-26T10:10:12Z</time>
      </trkpt>
      <trkpt lat="50.54973" lon="4.03633">
        <ele>102</ele>
        <time>2014-01-26T10:10:25Z</time>
      </trkpt>
      <trkpt lat="50.54959" lon="4.0363">
        <ele>102</ele>
        <time>2014-01-26T10:10:37Z</time>
      </trkpt>
      <trkpt lat="50.54944" lon="4.03626">
        <ele>102</ele>
        <time>2014-01-26T10:10:50Z</time>
      </trkpt>
      <trkpt lat="50.54933" lon="4.03623">
        <ele>102</ele>
        <time>2014-01-26T10:10:59Z</time>
      </trkpt>
      <trkpt lat="50.5492" lon="4.03619">
        <ele>102</ele>
        <time>2014-01-26T10:11:10Z</time>
      </trkpt>
      <trkpt lat="50.54907" lon="4.03615">
        <ele>103</ele>
        <time>2014-01-26T10:11:22Z</time>
      </trkpt>
      <trkpt lat="50.54892" lon="4.03608">
        <ele>103</ele>
        <time>2014-01-26T10:11:34Z</time>
      </trkpt>
      <trkpt lat="50.54875" lon="4.03605">
        <ele>103</ele>
        <time>2014-01-26T10:11:49Z</time>
      </trkpt>
      <trkpt lat="50.54862" lon="4.036">
        <ele>103</ele>
        <time>2014-01-26T10:11:59Z</time>
      </trkpt>
      <trkpt lat="50.54847" lon="4.03596">
        <ele>103</ele>
        <time>2014-01-26T10:12:12Z</time>
      </trkpt>
      <trkpt lat="50.54831" lon="4.03597">
        <ele>103</ele>
        <time>2014-01-26T10:12:25Z</time>
      </trkpt>
      <trkpt lat="50.54817" lon="4.03599">
        <ele>103</ele>
        <time>2014-01-26T10:12:37Z</time>
      </trkpt>
      <trkpt lat="50.54804" lon="4.03601">
        <ele>103</ele>
        <time>2014-01-26T10:12:48Z</time>
      </trkpt>
      <trkpt lat="50.54791" lon="4.03605">
        <ele>103</ele>
        <time>2014-01-26T10:12:59Z</time>
      </trkpt>
      <trkpt lat="50.54777" lon="4.03607">
        <ele>103</ele>
        <time>2014-01-26T10:13:10Z</time>
      </trkpt>
      <trkpt lat="50.54763" lon="4.03612">
        <ele>103</ele>
        <time>2014-01-26T10:13:22Z</time>
      </trkpt>
      <trkpt lat="50.54749" lon="4.03617">
        <ele>103</ele>
        <time>2014-01-26T10:13:33Z</time>
      </trkpt>
      <trkpt lat="50.54737" lon="4.03621">
        <ele>103</ele>
        <time>2014-01-26T10:13:44Z</time>
      </trkpt>
      <trkpt lat="50.54723" lon="4.03627">
        <ele>103</ele>
        <time>2014-01-26T10:13:56Z</time>
      </trkpt>
      <trkpt lat="50.54711" lon="4.03635">
        <ele>103</ele>
        <time>2014-01-26T10:14:07Z</time>
      </trkpt>
      <trkpt lat="50.54698" lon="4.03643">
        <ele>104</ele>
        <time>2014-01-26T10:14:18Z</time>
      </trkpt>
      <trkpt lat="50.54685" lon="4.03651">
        <ele>104</ele>
        <time>2014-01-26T10:14:29Z</time>
      </trkpt>
      <trkpt lat="50.54673" lon="4.03661">
        <ele>104</ele>
        <time>2014-01-26T10:14:40Z</time>
      </trkpt>
      <trkpt lat="50.5466" lon="4.03672">
        <ele>105</ele>
        <time>2014-01-26T10:14:52Z</time>
      </trkpt>
      <trkpt lat="50.54649" lon="4.03685">
        <ele>106</ele>
        <time>2014-01-26T10:15:03Z</time>
      </trkpt>
      <trkpt lat="50.54638" lon="4.037">
        <ele>106</ele>
        <time>2014-01-26T10:15:16Z</time>
      </trkpt>
      <trkpt lat="50.54628" lon="4.03707">
        <ele>106</ele>
        <time>2014-01-26T10:15:25Z</time>
      </trkpt>
      <trkpt lat="50.54617" lon="4.03717">
        <ele>106</ele>
        <time>2014-01-26T10:15:36Z</time>
      </trkpt>
      <trkpt lat="50.54608" lon="4.03728">
        <ele>106</ele>
        <time>2014-01-26T10:15:47Z</time>
      </trkpt>
      <trkpt lat="50.54598" lon="4.03736">
        <ele>106</ele>
        <time>2014-01-26T10:15:58Z</time>
      </trkpt>
      <trkpt lat="50.54584" lon="4.03748">
        <ele>107</ele>
        <time>2014-01-26T10:16:10Z</time>
      </trkpt>
      <trkpt lat="50.54571" lon="4.03759">
        <ele>108</ele>
        <time>2014-01-26T10:16:22Z</time>
      </trkpt>
      <trkpt lat="50.54561" lon="4.03768">
        <ele>109</ele>
        <time>2014-01-26T10:16:33Z</time>
      </trkpt>
      <trkpt lat="50.54552" lon="4.03774">
        <ele>109</ele>
        <time>2014-01-26T10:16:44Z</time>
      </trkpt>
      <trkpt lat="50.54551" lon="4.03783">
        <ele>109</ele>
        <time>2014-01-26T10:16:55Z</time>
      </trkpt>
      <trkpt lat="50.54551" lon="4.0379">
        <ele>109</ele>
        <time>2014-01-26T10:17:07Z</time>
      </trkpt>
      <trkpt lat="50.54545" lon="4.03798">
        <ele>109</ele>
        <time>2014-01-26T10:17:18Z</time>
      </trkpt>
      <trkpt lat="50.54539" lon="4.03805">
        <ele>110</ele>
        <time>2014-01-26T10:17:29Z</time>
      </trkpt>
      <trkpt lat="50.54521" lon="4.0382">
        <ele>111</ele>
        <time>2014-01-26T10:17:46Z</time>
      </trkpt>
      <trkpt lat="50.54512" lon="4.03829">
        <ele>112</ele>
        <time>2014-01-26T10:17:57Z</time>
      </trkpt>
      <trkpt lat="50.54506" lon="4.03838">
        <ele>112</ele>
        <time>2014-01-26T10:18:06Z</time>
      </trkpt>
      <trkpt lat="50.54492" lon="4.03854">
        <ele>112</ele>
        <time>2014-01-26T10:18:21Z</time>
      </trkpt>
      <trkpt lat="50.54486" lon="4.0386">
        <ele>112</ele>
        <time>2014-01-26T10:18:29Z</time>
      </trkpt>
      <trkpt lat="50.54481" lon="4.03865">
        <ele>112</ele>
        <time>2014-01-26T10:18:37Z</time>
      </trkpt>
      <trkpt lat="50.54472" lon="4.03876">
        <ele>112</ele>
        <time>2014-01-26T10:18:50Z</time>
      </trkpt>
      <trkpt lat="50.54469" lon="4.03881">
        <ele>112</ele>
        <time>2014-01-26T10:19:01Z</time>
      </trkpt>
      <trkpt lat="50.54456" lon="4.03901">
        <ele>112</ele>
        <time>2014-01-26T10:19:16Z</time>
      </trkpt>
      <trkpt lat="50.54445" lon="4.03915">
        <ele>112</ele>
        <time>2014-01-26T10:19:30Z</time>
      </trkpt>
      <trkpt lat="50.54444" lon="4.0392">
        <ele>111</ele>
        <time>2014-01-26T10:19:34Z</time>
      </trkpt>
      <trkpt lat="50.54436" lon="4.03943">
        <ele>111</ele>
        <time>2014-01-26T10:19:46Z</time>
      </trkpt>
      <trkpt lat="50.54427" lon="4.03968">
        <ele>110</ele>
        <time>2014-01-26T10:19:57Z</time>
      </trkpt>
      <trkpt lat="50.54422" lon="4.03989">
        <ele>111</ele>
        <time>2014-01-26T10:20:08Z</time>
      </trkpt>
      <trkpt lat="50.5442" lon="4.04001">
        <ele>111</ele>
        <time>2014-01-26T10:20:19Z</time>
      </trkpt>
      <trkpt lat="50.54414" lon="4.04012">
        <ele>110</ele>
        <time>2014-01-26T10:20:30Z</time>
      </trkpt>
      <trkpt lat="50.54399" lon="4.04021">
        <ele>109</ele>
        <time>2014-01-26T10:20:42Z</time>
      </trkpt>
      <trkpt lat="50.54388" lon="4.04028">
        <ele>108</ele>
        <time>2014-01-26T10:20:52Z</time>
      </trkpt>
      <trkpt lat="50.54377" lon="4.04033">
        <ele>108</ele>
        <time>2014-01-26T10:21:04Z</time>
      </trkpt>
      <trkpt lat="50.54369" lon="4.04038">
        <ele>108</ele>
        <time>2014-01-26T10:21:14Z</time>
      </trkpt>
      <trkpt lat="50.54357" lon="4.04037">
        <ele>108</ele>
        <time>2014-01-26T10:21:26Z</time>
      </trkpt>
      <trkpt lat="50.54348" lon="4.04045">
        <ele>107</ele>
        <time>2014-01-26T10:21:36Z</time>
      </trkpt>
      <trkpt lat="50.54343" lon="4.04056">
        <ele>107</ele>
        <time>2014-01-26T10:21:47Z</time>
      </trkpt>
      <trkpt lat="50.54342" lon="4.0407">
        <ele>106</ele>
        <time>2014-01-26T10:21:58Z</time>
      </trkpt>
      <trkpt lat="50.54334" lon="4.04086">
        <ele>105</ele>
        <time>2014-01-26T10:22:13Z</time>
      </trkpt>
      <trkpt lat="50.54323" lon="4.04098">
        <ele>105</ele>
        <time>2014-01-26T10:22:21Z</time>
      </trkpt>
      <trkpt lat="50.54311" lon="4.04112">
        <ele>105</ele>
        <time>2014-01-26T10:22:35Z</time>
      </trkpt>
      <trkpt lat="50.54303" lon="4.0412">
        <ele>105</ele>
        <time>2014-01-26T10:22:44Z</time>
      </trkpt>
      <trkpt lat="50.54286" lon="4.04136">
        <ele>105</ele>
        <time>2014-01-26T10:23:02Z</time>
      </trkpt>
      <trkpt lat="50.54284" lon="4.04138">
        <ele>105</ele>
        <time>2014-01-26T10:23:05Z</time>
      </trkpt>
      <trkpt lat="50.54277" lon="4.04144">
        <ele>105</ele>
        <time>2014-01-26T10:23:15Z</time>
      </trkpt>
      <trkpt lat="50.54266" lon="4.04158">
        <ele>105</ele>
        <time>2014-01-26T10:23:27Z</time>
      </trkpt>
      <trkpt lat="50.54257" lon="4.04168">
        <ele>105</ele>
        <time>2014-01-26T10:23:38Z</time>
      </trkpt>
      <trkpt lat="50.54249" lon="4.04162">
        <ele>106</ele>
        <time>2014-01-26T10:23:48Z</time>
      </trkpt>
      <trkpt lat="50.54242" lon="4.04148">
        <ele>107</ele>
        <time>2014-01-26T10:24:00Z</time>
      </trkpt>
    </trkseg>
  </trk>
</gpx>